sensor_id;sensor_type;location;lat;lon;timestamp;pressure;altitude;pressure_sealevel;temperature;humidity
31337;BME280;22846;42.654;23.314;2023-08-20T00:01:31;94769.59;;;28.41;38.28
31337;BME280;22846;42.654;23.314;2023-08-20T00:03:57;94764.25;;;28.37;38.42
31337;BME280;22846;42.654;23.314;2023-08-20T00:06:23;94771.88;;;28.42;38.25
31337;BME280;22846;42.654;23.314;2023-08-20T00:08:49;94770.38;;;28.41;38.17
31337;BME280;22846;42.654;23.314;2023-08-20T00:11:15;94776.63;;;28.42;38.37
31337;BME280;22846;42.654;23.314;2023-08-20T00:13:41;94767.16;;;28.43;38.19
31337;BME280;22846;42.654;23.314;2023-08-20T00:16:08;94758.91;;;28.43;38.34
31337;BME280;22846;42.654;23.314;2023-08-20T00:18:34;94761.97;;;28.45;37.94
31337;BME280;22846;42.654;23.314;2023-08-20T00:20:59;94761.97;;;28.45;38.16
31337;BME280;22846;42.654;23.314;2023-08-20T00:23:26;94767.47;;;28.45;38.51
31337;BME280;22846;42.654;23.314;2023-08-20T00:25:51;94769.00;;;28.46;38.03
31337;BME280;22846;42.654;23.314;2023-08-20T00:28:21;94772.50;;;28.46;38.00
31337;BME280;22846;42.654;23.314;2023-08-20T00:30:46;94773.72;;;28.45;37.92
31337;BME280;22846;42.654;23.314;2023-08-20T00:33:12;94769.00;;;28.46;38.32
31337;BME280;22846;42.654;23.314;2023-08-20T00:35:38;94771.75;;;28.46;38.23
31337;BME280;22846;42.654;23.314;2023-08-20T00:38:04;94769.00;;;28.46;38.03
31337;BME280;22846;42.654;23.314;2023-08-20T00:40:30;94767.31;;;28.48;38.33
31337;BME280;22846;42.654;23.314;2023-08-20T00:42:56;94761.81;;;28.48;37.94
31337;BME280;22846;42.654;23.314;2023-08-20T00:45:22;94769.28;;;28.48;38.29
31337;BME280;22846;42.654;23.314;2023-08-20T00:47:48;94768.06;;;28.49;38.23
31337;BME280;22846;42.654;23.314;2023-08-20T00:50:13;94769.59;;;28.50;37.99
31337;BME280;22846;42.654;23.314;2023-08-20T00:52:39;94755.38;;;28.42;37.80
31337;BME280;22846;42.654;23.314;2023-08-20T00:55:09;94766.09;;;28.49;38.60
31337;BME280;22846;42.654;23.314;2023-08-20T00:57:39;94758.59;;;28.50;38.13
31337;BME280;22846;42.654;23.314;2023-08-20T01:00:06;94762.56;;;28.49;37.97
31337;BME280;22846;42.654;23.314;2023-08-20T01:02:33;94759.81;;;28.49;37.95
31337;BME280;22846;42.654;23.314;2023-08-20T01:05:00;94764.88;;;28.50;38.24
31337;BME280;22846;42.654;23.314;2023-08-20T01:07:49;94764.09;;;28.50;38.51
31337;BME280;22846;42.654;23.314;2023-08-20T01:10:51;94756.63;;;28.50;37.79
31337;BME280;22846;42.654;23.314;2023-08-20T01:13:19;94755.84;;;28.50;38.03
31337;BME280;22846;42.654;23.314;2023-08-20T01:15:44;94761.34;;;28.50;37.81
31337;BME280;22846;42.654;23.314;2023-08-20T01:18:10;94766.09;;;28.49;37.40
31337;BME280;22846;42.654;23.314;2023-08-20T01:20:49;94756.31;;;28.48;37.91
31337;BME280;22846;42.654;23.314;2023-08-20T01:26:17;94759.81;;;28.49;37.94
31337;BME280;22846;42.654;23.314;2023-08-20T01:28:46;94756.63;;;28.50;38.03
31337;BME280;22846;42.654;23.314;2023-08-20T01:31:12;94744.84;;;28.41;38.33
31337;BME280;22846;42.654;23.314;2023-08-20T01:33:39;94756.63;;;28.50;37.96
31337;BME280;22846;42.654;23.314;2023-08-20T01:36:07;94753.09;;;28.50;37.85
31337;BME280;22846;42.654;23.314;2023-08-20T01:38:35;94752.63;;;28.51;38.07
31337;BME280;22846;42.654;23.314;2023-08-20T01:41:02;94740.56;;;28.49;38.27
31337;BME280;22846;42.654;23.314;2023-08-20T01:43:27;94747.59;;;28.50;38.07
31337;BME280;22846;42.654;23.314;2023-08-20T01:45:52;94746.84;;;28.49;38.11
31337;BME280;22846;42.654;23.314;2023-08-20T01:48:18;94747.59;;;28.50;38.23
31337;BME280;22846;42.654;23.314;2023-08-20T01:50:43;94747.59;;;28.50;38.11
31337;BME280;22846;42.654;23.314;2023-08-20T01:53:10;94747.59;;;28.50;38.15
31337;BME280;22846;42.654;23.314;2023-08-20T01:55:36;94753.09;;;28.50;38.26
31337;BME280;22846;42.654;23.314;2023-08-20T01:58:01;94748.06;;;28.48;38.32
31337;BME280;22846;42.654;23.314;2023-08-20T02:00:27;94742.56;;;28.48;38.21
31337;BME280;22846;42.654;23.314;2023-08-20T02:02:53;94730.03;;;28.47;38.25
31337;BME280;22846;42.654;23.314;2023-08-20T02:05:19;94730.03;;;28.47;38.28
31337;BME280;22846;42.654;23.314;2023-08-20T02:07:44;94739.50;;;28.46;38.14
31337;BME280;22846;42.654;23.314;2023-08-20T02:10:10;94729.72;;;28.45;38.22
31337;BME280;22846;42.654;23.314;2023-08-20T02:12:35;94725.91;;;28.43;38.38
31337;BME280;22846;42.654;23.314;2023-08-20T02:15:01;94732.63;;;28.42;38.33
31337;BME280;22846;42.654;23.314;2023-08-20T02:17:27;94722.84;;;28.41;38.33
31337;BME280;22846;42.654;23.314;2023-08-20T02:19:52;94725.28;;;28.39;38.35
31337;BME280;22846;42.654;23.314;2023-08-20T02:22:18;94725.75;;;28.37;38.30
31337;BME280;22846;42.654;23.314;2023-08-20T02:24:45;94731.75;;;28.36;38.29
31337;BME280;22846;42.654;23.314;2023-08-20T02:27:11;94729.00;;;28.36;38.33
31337;BME280;22846;42.654;23.314;2023-08-20T02:29:36;94730.69;;;28.33;38.26
31337;BME280;22846;42.654;23.314;2023-08-20T02:32:02;94726.84;;;28.31;38.12
31337;BME280;22846;42.654;23.314;2023-08-20T02:34:27;94727.31;;;28.29;38.34
31337;BME280;22846;42.654;23.314;2023-08-20T02:36:52;94723.19;;;28.25;38.38
31337;BME280;22846;42.654;23.314;2023-08-20T02:39:20;94729.44;;;28.25;38.50
31337;BME280;22846;42.654;23.314;2023-08-20T02:41:45;94728.38;;;28.23;38.25
31337;BME280;22846;42.654;23.314;2023-08-20T02:44:10;94732.78;;;28.20;38.71
31337;BME280;22846;42.654;23.314;2023-08-20T02:46:36;94741.50;;;28.19;38.38
31337;BME280;22846;42.654;23.314;2023-08-20T02:49:03;94720.25;;;28.11;38.74
31337;BME280;22846;42.654;23.314;2023-08-20T02:51:29;94728.66;;;28.16;38.61
31337;BME280;22846;42.654;23.314;2023-08-20T02:53:54;94740.88;;;28.15;38.57
31337;BME280;22846;42.654;23.314;2023-08-20T02:56:19;94744.09;;;28.14;38.37
31337;BME280;22846;42.654;23.314;2023-08-20T02:58:45;94748.81;;;28.13;38.63
31337;BME280;22846;42.654;23.314;2023-08-20T03:01:25;94740.56;;;28.04;38.81
31337;BME280;22846;42.654;23.314;2023-08-20T03:03:51;94754.78;;;28.12;38.46
31337;BME280;22846;42.654;23.314;2023-08-20T03:06:16;94762.25;;;28.11;38.93
31337;BME280;22846;42.654;23.314;2023-08-20T03:08:42;94752.50;;;28.10;38.87
31337;BME280;22846;42.654;23.314;2023-08-20T03:11:07;94757.19;;;28.10;39.22
31337;BME280;22846;42.654;23.314;2023-08-20T03:13:33;94754.19;;;28.08;39.03
31337;BME280;22846;42.654;23.314;2023-08-20T03:15:58;94761.63;;;28.07;39.10
31337;BME280;22846;42.654;23.314;2023-08-20T03:18:23;94753.88;;;28.06;38.93
31337;BME280;22846;42.654;23.314;2023-08-20T03:20:49;94748.97;;;28.01;39.10
31337;BME280;22846;42.654;23.314;2023-08-20T03:23:14;94750.06;;;28.03;39.02
31337;BME280;22846;42.654;23.314;2023-08-20T03:25:40;94743.63;;;27.97;38.93
31337;BME280;22846;42.654;23.314;2023-08-20T03:28:05;94749.75;;;28.01;39.19
31337;BME280;22846;42.654;23.314;2023-08-20T03:30:30;94749.44;;;27.99;39.25
31337;BME280;22846;42.654;23.314;2023-08-20T03:32:56;94754.91;;;27.99;39.27
31337;BME280;22846;42.654;23.314;2023-08-20T03:35:22;94745.63;;;27.97;39.02
31337;BME280;22846;42.654;23.314;2023-08-20T03:37:47;94746.84;;;27.96;39.31
31337;BME280;22846;42.654;23.314;2023-08-20T03:40:13;94742.56;;;27.95;39.21
31337;BME280;22846;42.654;23.314;2023-08-20T03:42:38;94746.53;;;27.94;39.21
31337;BME280;22846;42.654;23.314;2023-08-20T03:45:04;94738.75;;;27.92;39.56
31337;BME280;22846;42.654;23.314;2023-08-20T03:47:30;94742.72;;;27.91;39.57
31337;BME280;22846;42.654;23.314;2023-08-20T03:49:55;94735.69;;;27.90;39.57
31337;BME280;22846;42.654;23.314;2023-08-20T03:52:20;94736.91;;;27.89;39.29
31337;BME280;22846;42.654;23.314;2023-08-20T03:54:46;94735.38;;;27.88;39.28
31337;BME280;22846;42.654;23.314;2023-08-20T03:57:11;94725.16;;;27.80;39.41
31337;BME280;22846;42.654;23.314;2023-08-20T03:59:37;94736.31;;;27.85;39.63
31337;BME280;22846;42.654;23.314;2023-08-20T04:02:02;94734.78;;;27.84;39.81
31337;BME280;22846;42.654;23.314;2023-08-20T04:04:28;94734.00;;;27.84;39.57
31337;BME280;22846;42.654;23.314;2023-08-20T04:06:53;94736.75;;;27.84;39.41
31337;BME280;22846;42.654;23.314;2023-08-20T04:09:19;94734.47;;;27.82;39.60
31337;BME280;22846;42.654;23.314;2023-08-20T04:11:44;94737.69;;;27.81;39.59
31337;BME280;22846;42.654;23.314;2023-08-20T04:14:09;94735.38;;;27.79;39.71
31337;BME280;22846;42.654;23.314;2023-08-20T04:16:35;94736.16;;;27.80;39.47
31337;BME280;22846;42.654;23.314;2023-08-20T04:19:00;94728.34;;;27.78;39.76
31337;BME280;22846;42.654;23.314;2023-08-20T04:21:26;94733.84;;;27.78;39.59
31337;BME280;22846;42.654;23.314;2023-08-20T04:23:51;94730.34;;;27.78;39.59
31337;BME280;22846;42.654;23.314;2023-08-20T04:26:17;94735.38;;;27.79;39.57
31337;BME280;22846;42.654;23.314;2023-08-20T04:28:42;94733.84;;;27.78;39.60
31337;BME280;22846;42.654;23.314;2023-08-20T04:31:07;94730.34;;;27.78;39.50
31337;BME280;22846;42.654;23.314;2023-08-20T04:33:33;94742.06;;;27.78;39.89
31337;BME280;22846;42.654;23.314;2023-08-20T04:35:58;94739.31;;;27.78;39.79
31337;BME280;22846;42.654;23.314;2023-08-20T04:38:24;94726.22;;;27.73;40.00
31337;BME280;22846;42.654;23.314;2023-08-20T04:40:49;94739.63;;;27.80;39.77
31337;BME280;22846;42.654;23.314;2023-08-20T04:43:15;94736.91;;;27.80;39.59
31337;BME280;22846;42.654;23.314;2023-08-20T04:45:41;94729.44;;;27.81;39.46
31337;BME280;22846;42.654;23.314;2023-08-20T04:48:06;94743.91;;;27.81;39.70
31337;BME280;22846;42.654;23.314;2023-08-20T04:50:32;94743.91;;;27.81;39.73
31337;BME280;22846;42.654;23.314;2023-08-20T04:52:57;94739.94;;;27.82;39.77
31337;BME280;22846;42.654;23.314;2023-08-20T04:55:25;94747.72;;;27.84;40.13
31337;BME280;22846;42.654;23.314;2023-08-20T04:57:50;94739.19;;;27.82;40.24
31337;BME280;22846;42.654;23.314;2023-08-20T05:00:16;94741.34;;;27.87;40.61
31337;BME280;22846;42.654;23.314;2023-08-20T05:02:41;94736.59;;;27.87;40.33
31337;BME280;22846;42.654;23.314;2023-08-20T05:05:07;94746.34;;;27.88;40.49
31337;BME280;22846;42.654;23.314;2023-08-20T05:07:32;94750.63;;;27.89;40.28
31337;BME280;22846;42.654;23.314;2023-08-20T05:09:58;94745.94;;;27.90;40.35
31337;BME280;22846;42.654;23.314;2023-08-20T05:12:23;94746.97;;;27.92;40.08
31337;BME280;22846;42.654;23.314;2023-08-20T05:14:48;94747.31;;;27.94;40.25
31337;BME280;22846;42.654;23.314;2023-08-20T05:17:14;94754.16;;;27.99;40.16
31337;BME280;22846;42.654;23.314;2023-08-20T05:19:39;94753.25;;;28.02;40.29
31337;BME280;22846;42.654;23.314;2023-08-20T05:22:05;94759.34;;;28.06;40.14
31337;BME280;22846;42.654;23.314;2023-08-20T05:24:31;94758.75;;;28.11;40.06
31337;BME280;22846;42.654;23.314;2023-08-20T05:27:12;94765.13;;;28.16;40.36
31337;BME280;22846;42.654;23.314;2023-08-20T05:29:40;94760.59;;;28.22;40.46
31337;BME280;22846;42.654;23.314;2023-08-20T05:32:06;94763.94;;;28.26;40.34
31337;BME280;22846;42.654;23.314;2023-08-20T05:34:31;94748.53;;;28.20;40.26
31337;BME280;22846;42.654;23.314;2023-08-20T05:36:57;94760.44;;;28.35;40.14
31337;BME280;22846;42.654;23.314;2023-08-20T05:39:22;94769.00;;;28.37;40.22
31337;BME280;22846;42.654;23.314;2023-08-20T05:41:48;94761.81;;;28.39;40.27
31337;BME280;22846;42.654;23.314;2023-08-20T05:44:14;94767.16;;;28.43;39.88
31337;BME280;22846;42.654;23.314;2023-08-20T05:46:39;94773.25;;;28.47;40.53
31337;BME280;22846;42.654;23.314;2023-08-20T05:49:06;94765.63;;;28.42;40.04
31337;BME280;22846;42.654;23.314;2023-08-20T05:51:31;94768.69;;;28.53;40.59
31337;BME280;22846;42.654;23.314;2023-08-20T05:53:57;94774.47;;;28.55;40.34
31337;BME280;22846;42.654;23.314;2023-08-20T05:56:22;94776.28;;;28.58;40.10
31337;BME280;22846;42.654;23.314;2023-08-20T05:58:47;94773.09;;;28.59;39.67
31337;BME280;22846;42.654;23.314;2023-08-20T06:01:13;94771.41;;;28.62;39.86
31337;BME280;22846;42.654;23.314;2023-08-20T06:03:38;94769.41;;;28.62;39.68
31337;BME280;22846;42.654;23.314;2023-08-20T06:06:03;94766.22;;;28.64;39.35
31337;BME280;22846;42.654;23.314;2023-08-20T06:08:29;94769.25;;;28.66;40.17
31337;BME280;22846;42.654;23.314;2023-08-20T06:10:54;94768.34;;;28.69;40.11
31337;BME280;22846;42.654;23.314;2023-08-20T06:13:20;94776.91;;;28.71;40.24
31337;BME280;22846;42.654;23.314;2023-08-20T06:15:45;94774.44;;;28.73;39.97
31337;BME280;22846;42.654;23.314;2023-08-20T06:18:10;94777.50;;;28.75;39.88
31337;BME280;22846;42.654;23.314;2023-08-20T06:20:36;94773.03;;;28.77;40.54
31337;BME280;22846;42.654;23.314;2023-08-20T06:23:01;94779.66;;;28.80;40.17
31337;BME280;22846;42.654;23.314;2023-08-20T06:25:26;94776.44;;;28.81;40.48
31337;BME280;22846;42.654;23.314;2023-08-20T06:27:52;94772.78;;;28.84;40.27
31337;BME280;22846;42.654;23.314;2023-08-20T06:30:17;94775.06;;;28.86;40.19
31337;BME280;22846;42.654;23.314;2023-08-20T06:32:44;94776.09;;;28.88;39.45
31337;BME280;22846;42.654;23.314;2023-08-20T06:35:10;94775.66;;;28.90;39.99
31337;BME280;22846;42.654;23.314;2023-08-20T06:37:36;94775.50;;;28.93;40.28
31337;BME280;22846;42.654;23.314;2023-08-20T06:40:01;94775.78;;;28.95;40.42
31337;BME280;22846;42.654;23.314;2023-08-20T06:42:27;94772.13;;;28.98;39.86
31337;BME280;22846;42.654;23.314;2023-08-20T06:44:52;94777.13;;;29.00;39.62
31337;BME280;22846;42.654;23.314;2023-08-20T06:47:17;94771.19;;;29.01;39.73
31337;BME280;22846;42.654;23.314;2023-08-20T06:49:43;94777.59;;;29.07;39.99
31337;BME280;22846;42.654;23.314;2023-08-20T06:52:08;94773.63;;;29.08;39.78
31337;BME280;22846;42.654;23.314;2023-08-20T06:54:34;94776.66;;;29.10;39.57
31337;BME280;22846;42.654;23.314;2023-08-20T06:56:59;94774.97;;;29.12;39.80
31337;BME280;22846;42.654;23.314;2023-08-20T06:59:25;94776.81;;;29.15;39.78
31337;BME280;22846;42.654;23.314;2023-08-20T07:01:50;94783.81;;;29.16;39.82
31337;BME280;22846;42.654;23.314;2023-08-20T07:04:16;94778.63;;;29.18;40.04
31337;BME280;22846;42.654;23.314;2023-08-20T07:06:41;94779.66;;;29.21;39.98
31337;BME280;22846;42.654;23.314;2023-08-20T07:09:07;94773.72;;;29.22;39.37
31337;BME280;22846;42.654;23.314;2023-08-20T07:11:32;94774.94;;;29.21;39.36
31337;BME280;22846;42.654;23.314;2023-08-20T07:13:57;94780.13;;;29.19;39.43
31337;BME280;22846;42.654;23.314;2023-08-20T07:16:23;94784.28;;;29.15;38.35
31337;BME280;22846;42.654;23.314;2023-08-20T07:18:48;94779.59;;;29.06;36.73
31337;BME280;22846;42.654;23.314;2023-08-20T07:21:13;94782.06;;;28.96;36.24
31337;BME280;22846;42.654;23.314;2023-08-20T07:23:39;94782.69;;;28.82;35.89
31337;BME280;22846;42.654;23.314;2023-08-20T07:26:06;94783.31;;;28.68;35.37
31337;BME280;22846;42.654;23.314;2023-08-20T07:28:32;94775.72;;;28.54;35.00
31337;BME280;22846;42.654;23.314;2023-08-20T07:31:16;94785.34;;;28.40;34.26
31337;BME280;22846;42.654;23.314;2023-08-20T07:33:46;94778.47;;;28.27;34.37
31337;BME280;22846;42.654;23.314;2023-08-20T07:36:11;94790.03;;;28.13;33.81
31337;BME280;22846;42.654;23.314;2023-08-20T07:38:37;94784.41;;;27.99;33.24
31337;BME280;22846;42.654;23.314;2023-08-20T07:41:06;94767.72;;;27.75;33.50
31337;BME280;22846;42.654;23.314;2023-08-20T07:43:32;94784.34;;;27.72;33.18
31337;BME280;22846;42.654;23.314;2023-08-20T07:45:57;94787.63;;;27.58;33.00
31337;BME280;22846;42.654;23.314;2023-08-20T07:48:22;94783.03;;;27.46;33.10
31337;BME280;22846;42.654;23.314;2023-08-20T07:50:48;94780.69;;;27.35;33.58
31337;BME280;22846;42.654;23.314;2023-08-20T07:53:13;94793.94;;;27.28;34.31
31337;BME280;22846;42.654;23.314;2023-08-20T07:55:39;94777.75;;;27.21;34.84
31337;BME280;22846;42.654;23.314;2023-08-20T07:58:04;94781.09;;;27.16;35.30
31337;BME280;22846;42.654;23.314;2023-08-20T08:00:29;94778.47;;;27.13;35.89
31337;BME280;22846;42.654;23.314;2023-08-20T08:02:55;94780.91;;;27.11;36.20
31337;BME280;22846;42.654;23.314;2023-08-20T08:05:20;94782.13;;;27.10;36.33
31337;BME280;22846;42.654;23.314;2023-08-20T08:07:45;94787.31;;;27.08;36.82
31337;BME280;22846;42.654;23.314;2023-08-20T08:10:11;94775.56;;;27.07;36.87
31337;BME280;22846;42.654;23.314;2023-08-20T08:12:36;94773.72;;;27.04;37.32
31337;BME280;22846;42.654;23.314;2023-08-20T08:15:02;94777.69;;;27.03;37.59
31337;BME280;22846;42.654;23.314;2023-08-20T08:17:27;94775.38;;;27.02;37.79
31337;BME280;22846;42.654;23.314;2023-08-20T08:19:53;94779.34;;;27.01;38.22
31337;BME280;22846;42.654;23.314;2023-08-20T08:22:22;94776.25;;;26.99;38.40
31337;BME280;22846;42.654;23.314;2023-08-20T08:24:48;94780.22;;;26.98;38.45
31337;BME280;22846;42.654;23.314;2023-08-20T08:27:13;94786.03;;;27.00;39.17
31337;BME280;22846;42.654;23.314;2023-08-20T08:29:39;94781.28;;;27.00;39.14
31337;BME280;22846;42.654;23.314;2023-08-20T08:32:04;94772.75;;;26.98;39.24
31337;BME280;22846;42.654;23.314;2023-08-20T08:34:29;94776.25;;;26.99;39.20
31337;BME280;22846;42.654;23.314;2023-08-20T08:36:55;94771.88;;;27.01;39.47
31337;BME280;22846;42.654;23.314;2023-08-20T08:39:20;94775.69;;;27.04;40.05
31337;BME280;22846;42.654;23.314;2023-08-20T08:41:49;94781.50;;;27.06;39.93
31337;BME280;22846;42.654;23.314;2023-08-20T08:44:16;94783.31;;;27.09;40.00
31337;BME280;22846;42.654;23.314;2023-08-20T08:46:42;94772.69;;;27.11;40.11
31337;BME280;22846;42.654;23.314;2023-08-20T08:49:08;94766.44;;;27.10;40.43
31337;BME280;22846;42.654;23.314;2023-08-20T08:51:34;94773.75;;;27.13;40.73
31337;BME280;22846;42.654;23.314;2023-08-20T08:54:01;94773.63;;;27.17;41.00
31337;BME280;22846;42.654;23.314;2023-08-20T08:56:27;94777.88;;;27.18;40.88
31337;BME280;22846;42.654;23.314;2023-08-20T08:58:53;94772.72;;;27.20;41.03
31337;BME280;22846;42.654;23.314;2023-08-20T09:01:19;94779.72;;;27.21;40.82
31337;BME280;22846;42.654;23.314;2023-08-20T09:03:45;94780.06;;;27.23;40.91
31337;BME280;22846;42.654;23.314;2023-08-20T09:06:12;94774.25;;;27.21;40.82
31337;BME280;22846;42.654;23.314;2023-08-20T09:08:37;94775.03;;;27.21;40.94
31337;BME280;22846;42.654;23.314;2023-08-20T09:11:03;94777.75;;;27.21;41.44
31337;BME280;22846;42.654;23.314;2023-08-20T09:13:38;94781.25;;;27.22;41.93
31337;BME280;22846;42.654;23.314;2023-08-20T09:16:05;94771.84;;;27.32;42.02
31337;BME280;22846;42.654;23.314;2023-08-20T09:18:32;94771.28;;;27.45;42.37
31337;BME280;22846;42.654;23.314;2023-08-20T09:20:58;94768.25;;;27.61;42.30
31337;BME280;22846;42.654;23.314;2023-08-20T09:23:28;94762.66;;;27.74;42.82
31337;BME280;22846;42.654;23.314;2023-08-20T09:25:53;94751.69;;;27.83;42.85
31337;BME280;22846;42.654;23.314;2023-08-20T09:28:19;94750.03;;;27.85;42.99
31337;BME280;22846;42.654;23.314;2023-08-20T09:30:58;94769.28;;;27.85;41.86
31337;BME280;22846;42.654;23.314;2023-08-20T09:33:26;94765.28;;;27.77;40.59
31337;BME280;22846;42.654;23.314;2023-08-20T09:35:53;94760.38;;;27.63;39.68
31337;BME280;22846;42.654;23.314;2023-08-20T09:38:22;94764.66;;;27.64;39.45
31337;BME280;22846;42.654;23.314;2023-08-20T09:40:50;94763.06;;;27.54;39.16
31337;BME280;22846;42.654;23.314;2023-08-20T09:43:18;94768.69;;;27.51;39.68
31337;BME280;22846;42.654;23.314;2023-08-20T09:45:43;94770.84;;;27.47;38.92
31337;BME280;22846;42.654;23.314;2023-08-20T09:48:13;94765.19;;;27.41;39.57
31337;BME280;22846;42.654;23.314;2023-08-20T09:50:41;94768.34;;;27.40;39.92
31337;BME280;22846;42.654;23.314;2023-08-20T09:53:25;94770.94;;;27.34;40.05
31337;BME280;22846;42.654;23.314;2023-08-20T09:55:51;94757.75;;;27.12;41.42
31337;BME280;22846;42.654;23.314;2023-08-20T09:58:19;94758.66;;;27.18;40.39
31337;BME280;22846;42.654;23.314;2023-08-20T10:00:49;94756.56;;;27.22;40.45
31337;BME280;22846;42.654;23.314;2023-08-20T10:03:15;94751.72;;;27.26;40.97
31337;BME280;22846;42.654;23.314;2023-08-20T10:05:41;94757.19;;;27.26;40.95
31337;BME280;22846;42.654;23.314;2023-08-20T10:08:07;94763.13;;;27.24;40.98
31337;BME280;22846;42.654;23.314;2023-08-20T10:10:33;94762.38;;;27.24;41.53
31337;BME280;22846;42.654;23.314;2023-08-20T10:12:59;94763.44;;;27.26;41.42
31337;BME280;22846;42.654;23.314;2023-08-20T10:15:26;94756.91;;;27.33;41.22
31337;BME280;22846;42.654;23.314;2023-08-20T10:17:52;94758.16;;;27.40;41.23
31337;BME280;22846;42.654;23.314;2023-08-20T10:20:18;94752.38;;;27.47;40.80
31337;BME280;22846;42.654;23.314;2023-08-20T10:22:45;94758.94;;;27.50;41.36
31337;BME280;22846;42.654;23.314;2023-08-20T10:25:12;94732.81;;;27.36;41.40
31337;BME280;22846;42.654;23.314;2023-08-20T10:27:46;94756.34;;;27.46;41.32
31337;BME280;22846;42.654;23.314;2023-08-20T10:30:32;94753.72;;;27.43;41.22
31337;BME280;22846;42.654;23.314;2023-08-20T10:32:57;94751.13;;;27.39;41.05
31337;BME280;22846;42.654;23.314;2023-08-20T10:35:46;94745.00;;;27.35;41.10
31337;BME280;22846;42.654;23.314;2023-08-20T10:38:14;94747.91;;;27.32;41.46
31337;BME280;22846;42.654;23.314;2023-08-20T10:48:46;94738.00;;;27.26;41.51
31337;BME280;22846;42.654;23.314;2023-08-20T10:51:14;94734.63;;;27.22;41.78
31337;BME280;22846;42.654;23.314;2023-08-20T10:53:41;94736.16;;;27.23;41.62
31337;BME280;22846;42.654;23.314;2023-08-20T10:56:11;94729.28;;;27.27;41.67
31337;BME280;22846;42.654;23.314;2023-08-20T10:58:40;94739.53;;;27.35;41.69
31337;BME280;22846;42.654;23.314;2023-08-20T11:01:12;94732.38;;;27.38;41.49
31337;BME280;22846;42.654;23.314;2023-08-20T11:03:39;94735.59;;;27.45;41.68
31337;BME280;22846;42.654;23.314;2023-08-20T11:06:06;94731.63;;;27.46;41.60
31337;BME280;22846;42.654;23.314;2023-08-20T11:08:32;94735.16;;;27.47;41.47
31337;BME280;22846;42.654;23.314;2023-08-20T11:10:57;94732.53;;;27.43;41.58
31337;BME280;22846;42.654;23.314;2023-08-20T11:13:25;94722.91;;;27.39;41.36
31337;BME280;22846;42.654;23.314;2023-08-20T11:15:50;94715.13;;;27.37;41.60
31337;BME280;22846;42.654;23.314;2023-08-20T11:18:16;94720.03;;;27.33;41.52
31337;BME280;22846;42.654;23.314;2023-08-20T11:20:41;94713.59;;;27.28;41.88
31337;BME280;22846;42.654;23.314;2023-08-20T11:23:07;94714.78;;;27.27;41.79
31337;BME280;22846;42.654;23.314;2023-08-20T11:25:34;94713.91;;;27.30;41.80
31337;BME280;22846;42.654;23.314;2023-08-20T11:27:59;94718.66;;;27.38;42.20
31337;BME280;22846;42.654;23.314;2023-08-20T11:30:29;94718.81;;;27.43;41.84
31337;BME280;22846;42.654;23.314;2023-08-20T11:32:55;94721.56;;;27.52;41.58
31337;BME280;22846;42.654;23.314;2023-08-20T11:35:20;94714.56;;;27.60;41.14
31337;BME280;22846;42.654;23.314;2023-08-20T11:37:46;94706.81;;;27.68;40.88
31337;BME280;22846;42.654;23.314;2023-08-20T11:40:12;94703.19;;;27.71;41.08
31337;BME280;22846;42.654;23.314;2023-08-20T11:42:37;94705.28;;;27.67;40.93
31337;BME280;22846;42.654;23.314;2023-08-20T11:45:03;94701.50;;;27.64;40.77
31337;BME280;22846;42.654;23.314;2023-08-20T11:47:28;94701.94;;;27.63;40.71
31337;BME280;22846;42.654;23.314;2023-08-20T11:50:04;94706.94;;;27.55;41.36
31337;BME280;22846;42.654;23.314;2023-08-20T11:52:34;94713.66;;;27.54;41.70
31337;BME280;22846;42.654;23.314;2023-08-20T11:55:00;94714.25;;;27.49;41.93
31337;BME280;22846;42.654;23.314;2023-08-20T11:57:25;94713.47;;;27.49;42.44
31337;BME280;22846;42.654;23.314;2023-08-20T11:59:51;94698.84;;;27.52;42.00
31337;BME280;22846;42.654;23.314;2023-08-20T12:02:25;94693.53;;;27.57;41.83
31337;BME280;22846;42.654;23.314;2023-08-20T12:04:51;94706.06;;;27.67;42.17
31337;BME280;22846;42.654;23.314;2023-08-20T12:07:16;94696.31;;;27.75;42.26
31337;BME280;22846;42.654;23.314;2023-08-20T12:09:42;94687.44;;;27.80;42.34
31337;BME280;22846;42.654;23.314;2023-08-20T12:12:08;94685.50;;;27.90;42.15
31337;BME280;22846;42.654;23.314;2023-08-20T12:14:36;94690.34;;;27.95;41.79
31337;BME280;22846;42.654;23.314;2023-08-20T12:17:02;94683.03;;;28.01;41.63
31337;BME280;22846;42.654;23.314;2023-08-20T12:19:28;94684.38;;;28.05;41.50
31337;BME280;22846;42.654;23.314;2023-08-20T12:21:53;94681.94;;;28.07;41.42
31337;BME280;22846;42.654;23.314;2023-08-20T12:24:19;94675.84;;;28.12;41.24
31337;BME280;22846;42.654;23.314;2023-08-20T12:26:45;94676.44;;;28.16;41.30
31337;BME280;22846;42.654;23.314;2023-08-20T12:29:11;94684.53;;;28.19;41.24
31337;BME280;22846;42.654;23.314;2023-08-20T12:31:37;94672.97;;;28.24;41.49
31337;BME280;22846;42.654;23.314;2023-08-20T12:34:03;94668.53;;;28.27;41.14
31337;BME280;22846;42.654;23.314;2023-08-20T12:36:28;94667.59;;;28.30;41.44
31337;BME280;22846;42.654;23.314;2023-08-20T12:38:54;94659.94;;;28.34;41.17
31337;BME280;22846;42.654;23.314;2023-08-20T12:41:20;94661.47;;;28.35;41.05
31337;BME280;22846;42.654;23.314;2023-08-20T12:43:45;94662.06;;;28.39;40.95
31337;BME280;22846;42.654;23.314;2023-08-20T12:46:11;94670.63;;;28.41;40.90
31337;BME280;22846;42.654;23.314;2023-08-20T12:48:38;94667.88;;;28.41;40.31
31337;BME280;22846;42.654;23.314;2023-08-20T12:51:03;94673.22;;;28.35;39.76
31337;BME280;22846;42.654;23.314;2023-08-20T12:53:28;94656.59;;;28.21;39.15
31337;BME280;22846;42.654;23.314;2023-08-20T12:55:54;94659.06;;;28.10;39.32
31337;BME280;22846;42.654;23.314;2023-08-20T12:58:19;94662.13;;;28.03;39.75